createdAt,value
2023-05-12T00:02:49.809Z,12.40
2023-05-12T00:05:52.203Z,12.37
2023-05-12T00:08:54.119Z,12.40
2023-05-12T00:11:56.342Z,12.26
2023-05-12T00:14:58.392Z,12.27
2023-05-12T00:18:00.735Z,12.48
2023-05-12T00:21:03.106Z,12.42
2023-05-12T00:24:05.569Z,12.42
2023-05-12T00:27:07.657Z,12.37
2023-05-12T00:30:12.855Z,12.24
2023-05-12T00:33:16.618Z,12.32
2023-05-12T00:36:18.942Z,12.41
2023-05-12T00:39:21.195Z,12.42
2023-05-12T00:42:23.424Z,12.42
2023-05-12T00:45:25.447Z,12.56
2023-05-12T00:48:28.015Z,12.40
2023-05-12T00:51:30.105Z,12.50
2023-05-12T00:54:32.748Z,12.60
2023-05-12T00:57:34.828Z,12.63
2023-05-12T01:00:37.199Z,12.48
2023-05-12T01:03:40.241Z,12.47
2023-05-12T01:06:53.139Z,12.50
2023-05-12T01:09:56.467Z,12.51
2023-05-12T01:13:00.156Z,12.61
2023-05-12T01:16:03.082Z,12.50
2023-05-12T01:19:07.583Z,12.40
2023-05-12T01:22:11.029Z,12.50
2023-05-12T01:25:15.141Z,12.45
2023-05-12T01:28:18.381Z,12.48
2023-05-12T01:31:21.249Z,12.44
2023-05-12T01:34:23.482Z,12.51
2023-05-12T01:37:26.952Z,12.40
2023-05-12T01:40:29.389Z,12.51
2023-05-12T01:43:31.813Z,12.48
2023-05-12T01:46:33.858Z,12.55
2023-05-12T01:49:36.648Z,12.53
2023-05-12T01:52:39.112Z,12.58
2023-05-12T01:55:41.859Z,12.55
2023-05-12T01:58:45.082Z,12.49
2023-05-12T02:01:47.511Z,12.32
2023-05-12T02:04:50.924Z,12.35
2023-05-12T02:07:53.080Z,12.15
2023-05-12T02:11:08.150Z,12.12
2023-05-12T02:14:10.219Z,12.10
2023-05-12T02:17:12.866Z,12.11
2023-05-12T02:20:15.207Z,12.10
2023-05-12T02:23:18.264Z,12.21
2023-05-12T02:26:21.193Z,12.18
2023-05-12T02:29:23.816Z,12.29
2023-05-12T02:32:28.215Z,12.35
2023-05-12T02:35:30.756Z,12.36
2023-05-12T02:38:32.712Z,12.38
2023-05-12T02:41:35.086Z,12.34
2023-05-12T02:44:37.163Z,12.32
2023-05-12T02:47:39.686Z,12.28
2023-05-12T02:50:41.868Z,12.17
2023-05-12T02:53:44.272Z,12.16
2023-05-12T02:56:46.201Z,12.14
2023-05-12T02:59:48.554Z,12.17
2023-05-12T03:02:50.678Z,12.24
2023-05-12T03:05:53.497Z,12.21
2023-05-12T03:08:55.834Z,12.24
2023-05-12T03:11:58.176Z,12.23
2023-05-12T03:15:00.118Z,12.09
2023-05-12T03:18:05.437Z,12.07
2023-05-12T03:21:07.636Z,12.03
2023-05-12T03:24:13.026Z,12.00
2023-05-12T03:27:15.119Z,12.13
2023-05-12T03:30:17.550Z,12.01
2023-05-12T03:33:19.750Z,12.03
2023-05-12T03:36:23.697Z,12.00
2023-05-12T03:39:25.984Z,12.01
2023-05-12T03:42:28.530Z,11.98
2023-05-12T03:45:30.948Z,12.08
2023-05-12T03:48:33.389Z,12.12
2023-05-12T03:51:35.498Z,12.05
2023-05-12T03:54:38.155Z,11.87
2023-05-12T03:57:40.200Z,12.01
2023-05-12T04:00:42.590Z,11.99
2023-05-12T04:03:45.087Z,11.95
2023-05-12T04:06:47.085Z,11.93
2023-05-12T04:09:49.389Z,12.09
2023-05-12T04:12:52.381Z,11.98
2023-05-12T04:15:55.653Z,12.14
2023-05-12T04:18:58.076Z,12.14
2023-05-12T04:22:00.454Z,12.29
2023-05-12T04:25:02.585Z,12.02
2023-05-12T04:28:04.968Z,12.16
2023-05-12T04:31:07.156Z,12.13
2023-05-12T04:34:09.722Z,12.05
2023-05-12T04:37:11.799Z,12.10
2023-05-12T04:40:14.886Z,12.19
2023-05-12T04:46:22.931Z,12.17
2023-05-12T04:49:25.689Z,12.18
2023-05-12T04:52:29.453Z,12.12
2023-05-12T04:55:32.054Z,12.18
2023-05-12T04:58:34.733Z,12.08
2023-05-12T05:01:37.429Z,12.04
2023-05-12T05:04:40.564Z,12.08
2023-05-12T05:07:43.732Z,11.97
2023-05-12T05:10:46.664Z,12.02
2023-05-12T05:13:51.783Z,12.12
2023-05-12T05:16:54.296Z,12.24
2023-05-12T05:19:59.278Z,12.23
2023-05-12T05:23:03.405Z,12.42
2023-05-12T05:26:05.824Z,12.21
2023-05-12T05:29:08.628Z,12.29
2023-05-12T05:32:11.053Z,12.31
2023-05-12T05:35:13.858Z,12.39
2023-05-12T05:38:16.539Z,12.31
2023-05-12T05:41:19.171Z,12.42
2023-05-12T05:44:21.510Z,12.40
2023-05-12T05:47:24.681Z,12.43
2023-05-12T05:50:26.969Z,12.40
2023-05-12T05:53:29.584Z,12.34
2023-05-12T05:56:33.244Z,12.25
2023-05-12T05:59:36.047Z,12.46
2023-05-12T06:02:39.655Z,12.58
2023-05-12T06:05:43.685Z,12.46
2023-05-12T06:08:46.067Z,12.51
2023-05-12T06:11:48.478Z,12.60
2023-05-12T06:14:51.181Z,12.60
2023-05-12T06:17:53.706Z,12.56
2023-05-12T06:20:55.682Z,12.71
2023-05-12T06:23:58.828Z,12.74
2023-05-12T06:27:01.460Z,12.59
2023-05-12T06:30:04.502Z,12.63
2023-05-12T06:33:06.606Z,12.55
2023-05-12T06:36:10.706Z,12.42
2023-05-12T06:39:13.002Z,12.67
2023-05-12T06:42:15.806Z,12.66
2023-05-12T06:45:18.259Z,12.63
2023-05-12T06:48:20.866Z,12.77
2023-05-12T06:51:23.082Z,12.75
2023-05-12T06:54:26.411Z,12.74
2023-05-12T06:57:28.632Z,12.93
2023-05-12T07:00:31.314Z,12.93
2023-05-12T07:03:33.700Z,12.94
2023-05-12T07:06:36.370Z,12.90
2023-05-12T07:09:41.075Z,13.17
2023-05-12T07:12:43.676Z,13.23
2023-05-12T07:15:46.058Z,13.43
2023-05-12T07:18:48.794Z,13.41
2023-05-12T07:21:51.213Z,13.37
2023-05-12T07:24:53.676Z,13.36
2023-05-12T07:27:55.747Z,13.46
2023-05-12T07:30:59.477Z,13.66
2023-05-12T07:34:01.917Z,13.62
2023-05-12T07:37:06.498Z,13.77
2023-05-12T07:40:08.880Z,13.81
2023-05-12T07:43:12.042Z,13.78
2023-05-12T07:46:14.198Z,13.69
2023-05-12T07:49:18.477Z,13.76
2023-05-12T07:52:20.816Z,13.73
2023-05-12T07:55:25.973Z,13.97
2023-05-12T07:58:28.191Z,14.12
2023-05-12T08:01:30.693Z,14.12
2023-05-12T08:04:33.051Z,14.09
2023-05-12T08:07:48.499Z,14.14
2023-05-12T08:10:50.970Z,14.46
2023-05-12T08:13:53.349Z,14.21
2023-05-12T08:16:55.793Z,14.36
2023-05-12T08:19:59.409Z,14.29
2023-05-12T08:23:02.112Z,14.32
2023-05-12T08:26:04.626Z,14.15
2023-05-12T08:29:08.724Z,13.94
2023-05-12T08:32:11.241Z,13.87
2023-05-12T08:35:13.832Z,13.96
2023-05-12T08:38:19.055Z,13.76
2023-05-12T08:41:32.050Z,13.86
2023-05-12T08:44:34.150Z,14.07
2023-05-12T08:47:37.672Z,13.94
2023-05-12T08:50:41.202Z,13.87
2023-05-12T08:53:43.438Z,13.88
2023-05-12T08:59:55.745Z,13.77
2023-05-12T09:02:59.347Z,13.88
2023-05-12T09:06:01.936Z,13.74
2023-05-12T09:09:04.108Z,13.47
2023-05-12T09:12:10.036Z,13.23
2023-05-12T09:15:14.766Z,13.23
2023-05-12T09:18:16.975Z,13.24
2023-05-12T09:21:19.602Z,13.14
2023-05-12T09:24:33.338Z,13.15
2023-05-12T09:27:35.297Z,13.18
2023-05-12T09:30:38.537Z,13.10
2023-05-12T09:33:40.945Z,12.75
2023-05-12T09:36:43.348Z,12.92
2023-05-12T09:39:45.718Z,12.87
2023-05-12T09:42:48.462Z,12.72
2023-05-12T09:45:50.810Z,12.57
2023-05-12T09:48:55.564Z,12.57
2023-05-12T09:51:58.707Z,12.97
2023-05-12T09:55:19.565Z,13.08
2023-05-12T09:58:22.571Z,12.97
2023-05-12T10:01:25.747Z,13.01
2023-05-12T10:04:44.265Z,12.72
2023-05-12T10:07:48.689Z,12.62
2023-05-12T10:10:52.215Z,12.48
2023-05-12T10:13:54.355Z,12.56
2023-05-12T10:16:57.912Z,12.51
2023-05-12T10:20:00.919Z,12.73
2023-05-12T10:23:04.062Z,12.71
2023-05-12T10:26:06.352Z,12.69
2023-05-12T10:29:08.920Z,12.57
2023-05-12T10:32:11.414Z,12.61
2023-05-12T10:35:14.600Z,12.49
2023-05-12T10:38:16.899Z,12.48
2023-05-12T10:41:35.669Z,12.49
2023-05-12T10:44:49.277Z,12.41
2023-05-12T10:47:51.936Z,12.63
2023-05-12T10:50:54.105Z,12.56
2023-05-12T10:54:02.120Z,12.74
2023-05-12T10:57:16.038Z,12.68
2023-05-12T11:00:23.242Z,13.00
2023-05-12T11:03:26.163Z,13.18
2023-05-12T11:06:33.009Z,13.07
2023-05-12T11:09:46.927Z,13.01
2023-05-12T11:12:56.486Z,12.94
2023-05-12T11:15:58.643Z,12.81
2023-05-12T11:19:04.925Z,12.80
2023-05-12T11:22:07.739Z,12.88
2023-05-12T11:25:10.968Z,13.02
2023-05-12T11:28:13.103Z,13.01
2023-05-12T11:31:20.221Z,13.07
2023-05-12T11:34:23.232Z,13.17
2023-05-12T11:37:25.502Z,13.17
2023-05-12T11:40:27.616Z,13.24
2023-05-12T11:43:29.882Z,13.39
2023-05-12T11:46:32.002Z,13.36
2023-05-12T11:49:44.976Z,13.51
2023-05-12T11:52:47.011Z,13.35
2023-05-12T11:55:49.508Z,13.16
2023-05-12T11:58:58.184Z,12.90
2023-05-12T12:04:30.869Z,13.57
2023-05-12T12:07:38.207Z,13.57
2023-05-12T12:10:45.177Z,12.92
2023-05-12T12:13:49.584Z,12.90
2023-05-12T12:16:51.601Z,12.87
2023-05-12T12:19:53.880Z,12.82
2023-05-12T12:22:55.889Z,12.77
2023-05-12T12:25:58.153Z,12.75
2023-05-12T12:29:00.172Z,12.59
2023-05-12T12:32:02.431Z,12.57
2023-05-12T12:35:06.488Z,12.56
2023-05-12T12:38:08.766Z,12.62
2023-05-12T12:41:10.895Z,12.46
2023-05-12T12:44:13.454Z,12.27
2023-05-12T12:47:15.648Z,12.13
2023-05-12T12:50:18.098Z,12.22
2023-05-12T12:53:20.794Z,12.38
2023-05-12T12:56:25.573Z,12.36
2023-05-12T12:59:27.966Z,12.47
2023-05-12T13:02:30.366Z,12.57
2023-05-12T13:05:32.648Z,12.59
2023-05-12T13:08:35.030Z,12.74
2023-05-12T13:11:37.032Z,12.38
2023-05-12T13:14:39.706Z,12.45
2023-05-12T13:17:41.812Z,12.44
2023-05-12T13:20:44.449Z,12.39
2023-05-12T13:23:46.727Z,12.47
2023-05-12T13:26:49.006Z,12.48
2023-05-12T13:29:51.889Z,12.38
2023-05-12T13:32:54.272Z,12.32
2023-05-12T13:35:57.089Z,12.36
2023-05-12T13:38:59.332Z,12.41
2023-05-12T13:42:01.455Z,12.52
2023-05-12T13:45:04.400Z,12.57
2023-05-12T13:48:06.519Z,12.53
2023-05-12T13:51:08.904Z,12.47
2023-05-12T13:54:10.941Z,12.49
2023-05-12T13:57:14.238Z,12.51
2023-05-12T14:00:19.613Z,12.49
2023-05-12T14:03:22.105Z,12.44
2023-05-12T14:06:24.053Z,12.53
2023-05-12T14:09:26.686Z,12.51
2023-05-12T14:12:28.704Z,12.28
2023-05-12T14:15:47.206Z,12.26
2023-05-12T14:18:50.464Z,12.13
2023-05-12T14:21:52.826Z,12.30
2023-05-12T14:24:55.811Z,12.42
2023-05-12T14:27:58.533Z,12.58
2023-05-12T14:31:01.875Z,12.46
2023-05-12T14:34:04.549Z,12.41
2023-05-12T14:37:06.548Z,12.42
2023-05-12T14:40:09.070Z,12.24
2023-05-12T14:43:11.085Z,12.13
2023-05-12T14:46:13.783Z,12.17
2023-05-12T14:49:18.544Z,12.21
2023-05-12T14:52:20.767Z,12.31
2023-05-12T14:55:22.969Z,12.27
2023-05-12T14:58:25.394Z,12.39
2023-05-12T15:01:28.179Z,12.31
2023-05-12T15:04:30.705Z,12.34
2023-05-12T15:07:32.870Z,12.40
2023-05-12T15:10:35.126Z,12.40
2023-05-12T15:13:37.105Z,12.57
2023-05-12T15:16:39.498Z,12.63
2023-05-12T15:19:42.174Z,12.36
2023-05-12T15:22:44.438Z,12.26
2023-05-12T15:25:46.454Z,11.94
2023-05-12T15:28:48.712Z,12.00
2023-05-12T15:31:50.805Z,12.07
2023-05-12T15:34:53.062Z,12.11
2023-05-12T15:37:55.474Z,12.14
2023-05-12T15:40:58.405Z,12.06
2023-05-12T15:44:00.308Z,11.98
2023-05-12T15:47:02.669Z,12.11
2023-05-12T15:50:04.872Z,12.13
2023-05-12T15:53:07.170Z,11.98
2023-05-12T15:56:09.133Z,12.03
2023-05-12T15:59:14.515Z,12.08
2023-05-12T16:02:16.610Z,11.94
2023-05-12T16:05:19.205Z,12.00
2023-05-12T16:08:22.064Z,12.05
2023-05-12T16:11:24.262Z,12.00
2023-05-12T16:14:26.217Z,11.95
2023-05-12T16:17:28.616Z,11.94
2023-05-12T16:20:30.830Z,11.98
2023-05-12T16:23:33.369Z,11.96
2023-05-12T16:26:35.358Z,12.00
2023-05-12T16:29:37.625Z,11.95
2023-05-12T16:32:42.997Z,12.02
2023-05-12T16:35:45.351Z,12.11
2023-05-12T16:38:47.272Z,12.04
2023-05-12T16:41:49.535Z,12.15
2023-05-12T16:44:57.826Z,12.18
2023-05-12T16:48:00.201Z,12.07
2023-05-12T16:51:06.874Z,12.08
2023-05-12T16:54:09.190Z,12.08
2023-05-12T16:57:11.186Z,12.10
2023-05-12T17:00:14.173Z,12.17
2023-05-12T17:03:16.471Z,11.98
2023-05-12T17:06:18.771Z,12.00
2023-05-12T17:09:21.247Z,12.01
2023-05-12T17:12:23.483Z,11.97
2023-05-12T17:15:26.535Z,11.93
2023-05-12T17:18:28.900Z,11.82
2023-05-12T17:21:31.354Z,11.80
2023-05-12T17:24:34.334Z,11.83
2023-05-12T17:27:36.444Z,11.79
2023-05-12T17:30:38.759Z,11.84
2023-05-12T17:33:40.667Z,11.87
2023-05-12T17:36:42.975Z,11.79
2023-05-12T17:39:44.896Z,11.82
2023-05-12T17:42:47.227Z,11.79
2023-05-12T17:45:49.264Z,11.77
2023-05-12T17:48:51.817Z,11.70
2023-05-12T17:51:54.802Z,11.71
2023-05-12T17:54:57.323Z,11.58
2023-05-12T17:57:59.331Z,11.60
2023-05-12T18:01:01.826Z,11.65
2023-05-12T18:04:04.200Z,11.66
2023-05-12T18:07:06.884Z,11.50
2023-05-12T18:10:09.940Z,11.41
2023-05-12T18:13:12.276Z,11.37
2023-05-12T18:16:25.336Z,11.37
2023-05-12T18:19:30.800Z,11.38
2023-05-12T18:22:33.027Z,11.43
2023-05-12T18:25:35.016Z,11.50
2023-05-12T18:28:37.367Z,11.39
2023-05-12T18:31:41.919Z,11.54
2023-05-12T18:34:45.514Z,11.44
2023-05-12T18:37:47.468Z,11.46
2023-05-12T18:40:49.696Z,11.41
2023-05-12T18:43:52.272Z,11.30
2023-05-12T18:46:54.525Z,11.38
2023-05-12T18:49:56.745Z,11.44
2023-05-12T18:52:58.992Z,11.44
2023-05-12T18:56:01.018Z,11.39
2023-05-12T18:59:03.254Z,11.31
2023-05-12T19:02:05.488Z,11.29
2023-05-12T19:05:08.516Z,11.37
2023-05-12T19:08:11.170Z,11.34
2023-05-12T19:11:13.443Z,11.34
2023-05-12T19:14:16.679Z,11.39
2023-05-12T19:17:19.184Z,11.31
2023-05-12T19:20:21.190Z,11.30
2023-05-12T19:23:24.426Z,11.22
2023-05-12T19:26:26.875Z,11.28
2023-05-12T19:29:29.151Z,11.32
2023-05-12T19:32:31.597Z,11.40
2023-05-12T19:35:34.385Z,11.38
2023-05-12T19:38:36.981Z,11.24
2023-05-12T19:41:40.887Z,11.41
2023-05-12T19:44:42.867Z,11.47
2023-05-12T19:47:45.299Z,11.46
2023-05-12T19:50:47.502Z,11.37
2023-05-12T19:53:49.754Z,11.38
2023-05-12T19:56:52.087Z,11.31
2023-05-12T19:59:54.325Z,11.30
2023-05-12T20:02:56.367Z,11.21
2023-05-12T20:05:58.917Z,11.35
2023-05-12T20:09:00.891Z,11.42
2023-05-12T20:12:04.761Z,11.55
2023-05-12T20:15:08.819Z,11.56
2023-05-12T20:18:12.667Z,11.56
2023-05-12T20:21:15.481Z,11.45
2023-05-12T20:24:17.745Z,11.45
2023-05-12T20:27:19.712Z,11.39
2023-05-12T20:30:21.969Z,11.47
2023-05-12T20:33:23.990Z,11.43
2023-05-12T20:36:26.260Z,11.53
2023-05-12T20:39:28.875Z,11.53
2023-05-12T20:42:31.076Z,11.61
2023-05-12T20:45:33.593Z,11.46
2023-05-12T20:48:35.944Z,11.41
2023-05-12T20:51:37.896Z,11.50
2023-05-12T20:54:40.180Z,11.57
2023-05-12T20:57:42.148Z,11.70
2023-05-12T21:00:44.372Z,11.67
2023-05-12T21:03:46.662Z,11.71
2023-05-12T21:06:49.365Z,11.68
2023-05-12T21:09:52.186Z,11.64
2023-05-12T21:12:54.437Z,11.68
2023-05-12T21:15:56.500Z,11.69
2023-05-12T21:18:58.767Z,11.60
2023-05-12T21:22:00.812Z,11.72
2023-05-12T21:25:04.013Z,11.70
2023-05-12T21:28:06.948Z,11.58
2023-05-12T21:31:09.588Z,11.59
2023-05-12T21:34:11.507Z,11.57
2023-05-12T21:37:14.045Z,11.68
2023-05-12T21:40:16.450Z,11.70
2023-05-12T21:43:18.751Z,11.68
2023-05-12T21:46:20.688Z,11.74
2023-05-12T21:49:22.893Z,11.77
2023-05-12T21:52:24.946Z,11.66
2023-05-12T21:55:27.174Z,11.74
2023-05-12T21:58:29.951Z,11.66
2023-05-12T22:01:32.269Z,11.68
2023-05-12T22:04:34.575Z,11.65
2023-05-12T22:07:36.556Z,11.59
2023-05-12T22:10:38.856Z,11.62
2023-05-12T22:13:41.204Z,11.75
2023-05-12T22:16:43.495Z,11.66
2023-05-12T22:19:45.468Z,11.61
2023-05-12T22:22:47.704Z,11.58
2023-05-12T22:25:49.678Z,11.66
2023-05-12T22:28:52.250Z,11.68
2023-05-12T22:31:54.171Z,11.74
2023-05-12T22:34:56.396Z,11.63
2023-05-12T22:37:58.377Z,11.81
2023-05-12T22:41:00.828Z,11.72
2023-05-12T22:44:02.850Z,11.75
2023-05-12T22:47:05.750Z,11.80
2023-05-12T22:50:07.909Z,11.63
2023-05-12T22:53:10.144Z,11.72
2023-05-12T22:56:12.075Z,11.81
2023-05-12T22:59:14.384Z,11.59
2023-05-12T23:02:16.733Z,11.69
2023-05-12T23:05:19.106Z,11.61
2023-05-12T23:08:21.118Z,11.71
2023-05-12T23:11:23.387Z,11.69
2023-05-12T23:14:25.323Z,11.70
2023-05-12T23:17:27.612Z,11.53
2023-05-12T23:20:29.568Z,11.66
2023-05-12T23:23:33.001Z,11.60
2023-05-12T23:26:34.905Z,11.61
2023-05-12T23:29:37.145Z,11.62
2023-05-12T23:32:39.275Z,11.55
2023-05-12T23:35:41.786Z,11.58
2023-05-12T23:38:43.780Z,11.37
2023-05-12T23:41:46.078Z,11.40
2023-05-12T23:44:48.085Z,11.36
2023-05-12T23:47:50.422Z,11.35
2023-05-12T23:50:52.582Z,11.35
2023-05-12T23:53:54.901Z,11.34
2023-05-12T23:56:56.898Z,11.50
2023-05-12T23:59:59.278Z,11.41
